Terminal Aerodrome Forecast
Issued by NWS Upton, NY

Home | Current Version | Previous Version | Text Only | Print | Product List | Glossary On
Versions: 1 2 3 4 5 6 7 8 9 10 11 12 13 14 15 16 17 18 19 20 21 22 23 24 25 26 27 28 29 30 31 32 33 34 35 36 37 38 39
914
FTUS41 KOKX 270537
TAFLGA
TAF
KLGA 270537Z 2706/2812 06005KT P6SM SCT130 BKN200
     FM271200 08006KT P6SM VCSH SCT035 OVC080
     FM271400 07007KT 6SM -RA SCT010 OVC030
     FM271600 05005KT 3SM RA BR OVC011
     FM272100 04006KT 2SM -DZ BR OVC007
     FM280000 VRB05KT 2SM BR OVC005
     FM280500 VRB04KT 1SM BR OVC005=

USA.gov is the U.S. government's official web portal to all federal, state and local government web resources and services.